createdAt,value
2018-12-05T00:04:11.924Z,101975.34
2018-12-05T00:06:39.359Z,101980.88
2018-12-05T00:09:10.047Z,101981.55
2018-12-05T00:11:38.459Z,101980.59
2018-12-05T00:14:11.013Z,101979.22
2018-12-05T00:16:38.437Z,101975.69
2018-12-05T00:19:08.751Z,101978.10
2018-12-05T00:21:36.197Z,101974.26
2018-12-05T00:24:03.808Z,101979.11
2018-12-05T00:26:32.245Z,101979.86
2018-12-05T00:28:59.650Z,101978.65
2018-12-05T00:31:27.098Z,101970.86
2018-12-05T00:34:02.421Z,101960.09
2018-12-05T00:36:29.855Z,101969.22
2018-12-05T00:39:01.334Z,101974.94
2018-12-05T00:41:28.763Z,101971.82
2018-12-05T00:43:59.119Z,101970.52
2018-12-05T00:46:26.763Z,101969.22
2018-12-05T00:48:54.192Z,101970.47
2018-12-05T00:51:21.789Z,101972.95
2018-12-05T00:53:49.211Z,101972.48
2018-12-05T00:56:16.630Z,101974.06
2018-12-05T00:58:44.154Z,101968.08
2018-12-05T01:01:11.617Z,101960.80
2018-12-05T01:03:39.049Z,101960.82
2018-12-05T01:06:06.463Z,101969.91
2018-12-05T01:08:34.089Z,101965.99
2018-12-05T01:11:01.536Z,101965.08
2018-12-05T01:13:29.028Z,101962.37
2018-12-05T01:15:56.463Z,101956.63
2018-12-05T01:18:39.808Z,101957.23
2018-12-05T01:21:07.259Z,101956.98
2018-12-05T01:23:34.872Z,101954.27
2018-12-05T01:26:02.381Z,101952.91
2018-12-05T01:28:29.816Z,101956.30
2018-12-05T01:30:57.304Z,101963.55
2018-12-05T01:33:24.802Z,101961.29
2018-12-05T01:35:52.218Z,101955.25
2018-12-05T01:38:19.639Z,101953.89
2018-12-05T01:40:53.663Z,101947.63
2018-12-05T01:46:09.106Z,101954.16
2018-12-05T01:48:41.322Z,101952.45
2018-12-05T01:51:08.765Z,101957.99
2018-12-05T01:53:36.174Z,101960.51
2018-12-05T01:56:03.701Z,101962.31
2018-12-05T01:58:31.275Z,101953.75
2018-12-05T02:00:59.562Z,101952.45
2018-12-05T02:03:27.127Z,101955.89
2018-12-05T02:05:54.762Z,101950.70
2018-12-05T02:08:27.079Z,101957.59
2018-12-05T02:10:59.444Z,101952.80
2018-12-05T02:13:33.297Z,101962.83
2018-12-05T02:16:00.709Z,101962.06
2018-12-05T02:18:28.336Z,101956.44
2018-12-05T02:20:55.867Z,101948.66
2018-12-05T02:23:23.315Z,101944.77
2018-12-05T02:25:50.755Z,101942.17
2018-12-05T02:28:18.196Z,101936.06
2018-12-05T02:31:05.313Z,101935.03
2018-12-05T02:33:32.843Z,101934.56
2018-12-05T02:36:00.330Z,101931.46
2018-12-05T02:38:27.755Z,101925.31
2018-12-05T02:40:58.133Z,101927.83
2018-12-05T02:43:29.535Z,101929.84
2018-12-05T02:46:01.775Z,101929.38
2018-12-05T02:48:29.220Z,101933.22
2018-12-05T02:50:56.679Z,101935.75
2018-12-05T02:53:24.103Z,101930.49
2018-12-05T02:55:52.079Z,101921.41
2018-12-05T02:58:19.517Z,101920.05
2018-12-05T03:00:47.002Z,101912.22
2018-12-05T03:03:14.439Z,101915.25
2018-12-05T03:05:42.169Z,101912.98
2018-12-05T03:08:09.583Z,101915.52
2018-12-05T03:10:37.026Z,101910.70
2018-12-05T03:15:58.588Z,101907.52
2018-12-05T03:18:26.011Z,101914.40
2018-12-05T03:20:53.445Z,101915.23
2018-12-05T03:23:24.875Z,101917.32
2018-12-05T03:25:58.008Z,101912.46
2018-12-05T03:28:25.439Z,101913.60
2018-12-05T03:30:55.734Z,101914.00
2018-12-05T03:33:38.695Z,101910.50
2018-12-05T03:36:06.144Z,101907.39
2018-12-05T03:38:34.509Z,101903.41
2018-12-05T03:41:01.952Z,101905.05
2018-12-05T03:43:34.483Z,101899.39
2018-12-05T03:46:02.031Z,101904.89
2018-12-05T03:48:29.447Z,101905.98
2018-12-05T03:50:56.879Z,101906.80
2018-12-05T03:53:24.321Z,101895.03
2018-12-05T03:55:51.807Z,101898.84
2018-12-05T03:58:20.202Z,101897.86
2018-12-05T04:00:47.719Z,101900.31
2018-12-05T04:03:15.178Z,101895.52
2018-12-05T04:05:42.582Z,101890.31
2018-12-05T04:08:10.036Z,101898.08
2018-12-05T04:10:37.448Z,101890.65
2018-12-05T04:13:04.903Z,101895.28
2018-12-05T04:15:32.306Z,101903.22
2018-12-05T04:17:59.764Z,101903.14
2018-12-05T04:20:37.773Z,101909.09
2018-12-05T04:23:05.215Z,101911.66
2018-12-05T04:25:37.582Z,101910.82
2018-12-05T04:28:15.065Z,101911.19
2018-12-05T04:33:14.563Z,101909.38
2018-12-05T04:35:41.979Z,101910.61
2018-12-05T04:38:09.414Z,101923.16
2018-12-05T04:40:36.843Z,101920.11
2018-12-05T04:43:04.288Z,101917.91
2018-12-05T04:45:31.721Z,101918.72
2018-12-05T04:47:59.214Z,101922.17
2018-12-05T04:50:26.624Z,101924.81
2018-12-05T04:52:54.060Z,101923.21
2018-12-05T04:55:21.517Z,101921.86
2018-12-05T04:57:49.040Z,101920.56
2018-12-05T05:00:16.511Z,101919.67
2018-12-05T05:02:43.926Z,101903.66
2018-12-05T05:05:11.372Z,101898.94
2018-12-05T05:07:38.791Z,101891.58
2018-12-05T05:10:06.382Z,101900.27
2018-12-05T05:12:37.806Z,101894.69
2018-12-05T05:15:10.328Z,101896.04
2018-12-05T05:17:37.743Z,101889.14
2018-12-05T05:20:11.956Z,101893.02
2018-12-05T05:22:42.508Z,101896.04
2018-12-05T05:25:09.943Z,101889.11
2018-12-05T05:27:46.044Z,101887.45
2018-12-05T05:30:13.474Z,101893.63
2018-12-05T05:32:40.894Z,101893.31
2018-12-05T05:35:08.327Z,101889.88
2018-12-05T05:37:35.956Z,101883.81
2018-12-05T05:40:04.523Z,101884.70
2018-12-05T05:42:31.962Z,101882.18
2018-12-05T05:45:00.204Z,101877.95
2018-12-05T05:47:27.647Z,101871.97
2018-12-05T05:49:55.058Z,101868.09
2018-12-05T05:54:57.198Z,101868.31
2018-12-05T05:57:28.590Z,101863.27
2018-12-05T06:00:00.947Z,101867.23
2018-12-05T06:02:28.383Z,101874.67
2018-12-05T06:05:10.771Z,101877.21
2018-12-05T06:07:41.029Z,101868.15
2018-12-05T06:10:18.296Z,101866.08
2018-12-05T06:12:45.706Z,101862.67
2018-12-05T06:15:13.219Z,101855.36
2018-12-05T06:17:40.674Z,101862.27
2018-12-05T06:20:22.920Z,101862.67
2018-12-05T06:22:50.475Z,101867.50
2018-12-05T06:28:06.550Z,101858.08
2018-12-05T06:30:34.042Z,101866.83
2018-12-05T06:33:01.455Z,101867.28
2018-12-05T06:35:28.895Z,101868.63
2018-12-05T06:37:56.318Z,101865.15
2018-12-05T06:40:23.754Z,101863.40
2018-12-05T06:42:51.319Z,101864.23
2018-12-05T06:45:18.763Z,101869.88
2018-12-05T06:47:46.200Z,101870.17
2018-12-05T06:50:13.636Z,101870.49
2018-12-05T06:52:57.233Z,101869.52
2018-12-05T06:55:24.703Z,101864.86
2018-12-05T06:57:53.914Z,101868.42
2018-12-05T07:00:24.577Z,101865.38
2018-12-05T07:02:55.950Z,101868.82
2018-12-05T07:05:23.403Z,101876.64
2018-12-05T07:07:50.817Z,101877.97
2018-12-05T07:10:18.271Z,101884.03
2018-12-05T07:12:45.709Z,101886.63
2018-12-05T07:15:13.307Z,101892.70
2018-12-05T07:17:40.772Z,101890.13
2018-12-05T07:20:08.271Z,101882.81
2018-12-05T07:22:36.035Z,101876.45
2018-12-05T07:25:12.402Z,101873.44
2018-12-05T07:27:44.692Z,101869.22
2018-12-05T07:30:12.118Z,101871.73
2018-12-05T07:32:39.559Z,101879.05
2018-12-05T07:35:07.075Z,101872.14
2018-12-05T07:37:41.088Z,101866.95
2018-12-05T07:40:12.531Z,101868.71
2018-12-05T07:45:23.100Z,101859.72
2018-12-05T07:47:50.563Z,101857.24
2018-12-05T07:50:21.923Z,101861.13
2018-12-05T07:55:37.614Z,101859.07
2018-12-05T07:58:05.050Z,101856.48
2018-12-05T08:00:32.509Z,101846.52
2018-12-05T08:03:01.668Z,101846.06
2018-12-05T08:05:29.389Z,101839.24
2018-12-05T08:07:56.960Z,101840.63
2018-12-05T08:10:30.357Z,101838.16
2018-12-05T08:12:57.886Z,101823.08
2018-12-05T08:15:25.315Z,101818.34
2018-12-05T08:17:57.639Z,101820.55
2018-12-05T08:20:25.099Z,101823.66
2018-12-05T08:22:52.839Z,101822.83
2018-12-05T08:25:25.128Z,101826.82
2018-12-05T08:27:52.564Z,101820.80
2018-12-05T08:30:19.974Z,101817.42
2018-12-05T08:32:47.514Z,101823.91
2018-12-05T08:35:14.986Z,101824.81
2018-12-05T08:37:44.405Z,101824.47
2018-12-05T08:40:11.852Z,101813.22
2018-12-05T08:42:39.282Z,101806.35
2018-12-05T08:45:06.722Z,101818.06
2018-12-05T08:47:34.171Z,101812.45
2018-12-05T08:50:03.580Z,101811.71
2018-12-05T08:52:31.029Z,101816.52
2018-12-05T08:55:01.357Z,101811.91
2018-12-05T08:57:28.775Z,101816.31
2018-12-05T09:00:00.093Z,101807.28
2018-12-05T09:02:31.345Z,101804.38
2018-12-05T09:04:59.051Z,101802.34
2018-12-05T09:07:33.312Z,101795.86
2018-12-05T09:10:04.353Z,101785.50
2018-12-05T09:12:31.967Z,101779.91
2018-12-05T09:18:16.317Z,101771.36
2018-12-05T09:20:44.039Z,101771.88
2018-12-05T09:23:11.470Z,101781.50
2018-12-05T09:25:39.010Z,101766.80
2018-12-05T09:28:06.473Z,101760.42
2018-12-05T09:30:36.828Z,101766.52
2018-12-05T09:33:04.281Z,101760.14
2018-12-05T09:35:31.735Z,101755.52
2018-12-05T09:37:59.455Z,101749.57
2018-12-05T09:40:27.170Z,101753.57
2018-12-05T09:42:54.606Z,101750.62
2018-12-05T09:45:22.043Z,101749.77
2018-12-05T09:47:53.439Z,101747.28
2018-12-05T09:50:20.979Z,101752.53
2018-12-05T09:52:48.423Z,101752.54
2018-12-05T09:55:16.973Z,101751.80
2018-12-05T09:57:44.482Z,101748.00
2018-12-05T10:00:11.921Z,101746.70
2018-12-05T10:02:44.259Z,101755.89
2018-12-05T10:05:11.748Z,101755.50
2018-12-05T10:07:39.341Z,101752.54
2018-12-05T10:10:07.025Z,101749.55
2018-12-05T10:12:34.546Z,101751.79
2018-12-05T10:15:02.162Z,101747.95
2018-12-05T10:17:34.527Z,101743.22
2018-12-05T10:20:01.981Z,101737.63
2018-12-05T10:22:29.463Z,101731.19
2018-12-05T10:24:56.871Z,101719.99
2018-12-05T10:27:24.308Z,101707.86
2018-12-05T10:29:55.599Z,101702.23
2018-12-05T10:32:23.027Z,101697.08
2018-12-05T10:34:50.452Z,101700.17
2018-12-05T10:37:21.835Z,101699.36
2018-12-05T10:39:49.260Z,101692.92
2018-12-05T10:42:16.734Z,101687.73
2018-12-05T10:44:44.174Z,101682.58
2018-12-05T10:47:11.603Z,101686.91
2018-12-05T10:49:39.051Z,101687.81
2018-12-05T10:54:45.137Z,101687.59
2018-12-05T10:57:12.584Z,101669.50
2018-12-05T10:59:40.011Z,101660.98
2018-12-05T11:05:18.262Z,101647.70
2018-12-05T11:07:52.215Z,101651.69
2018-12-05T11:10:25.319Z,101650.02
2018-12-05T11:12:58.386Z,101642.71
2018-12-05T11:15:31.301Z,101631.98
2018-12-05T11:18:04.285Z,101625.97
2018-12-05T11:20:37.307Z,101623.86
2018-12-05T11:23:11.734Z,101608.19
2018-12-05T11:25:39.149Z,101605.59
2018-12-05T11:28:06.569Z,101600.80
2018-12-05T11:30:34.070Z,101605.55
2018-12-05T11:33:03.433Z,101600.80
2018-12-05T11:35:30.978Z,101591.81
2018-12-05T11:37:58.433Z,101588.84
2018-12-05T11:40:25.961Z,101582.85
2018-12-05T11:42:53.404Z,101582.03
2018-12-05T11:45:20.958Z,101583.41
2018-12-05T11:47:49.197Z,101588.26
2018-12-05T11:50:16.844Z,101579.63
2018-12-05T11:52:44.256Z,101581.03
2018-12-05T11:55:11.707Z,101571.96
2018-12-05T11:57:39.122Z,101572.44
2018-12-05T12:00:07.643Z,101570.34
2018-12-05T12:02:35.046Z,101570.38
2018-12-05T12:05:09.536Z,101563.45
2018-12-05T12:07:41.922Z,101569.61
2018-12-05T12:10:09.514Z,101570.25
2018-12-05T12:12:42.398Z,101563.83
2018-12-05T12:15:09.845Z,101562.97
2018-12-05T12:17:37.296Z,101550.45
2018-12-05T12:20:05.112Z,101547.45
2018-12-05T12:22:32.615Z,101543.14
2018-12-05T12:25:00.061Z,101531.45
2018-12-05T12:27:27.509Z,101520.64
2018-12-05T12:29:54.941Z,101521.52
2018-12-05T12:32:22.456Z,101524.17
2018-12-05T12:34:49.863Z,101523.36
2018-12-05T12:37:17.316Z,101516.45
2018-12-05T12:39:48.830Z,101518.19
2018-12-05T12:42:16.270Z,101507.80
2018-12-05T12:44:43.695Z,101505.69
2018-12-05T12:47:11.129Z,101501.39
2018-12-05T12:49:38.577Z,101492.25
2018-12-05T12:52:06.308Z,101497.51
2018-12-05T12:54:33.751Z,101491.42
2018-12-05T12:57:01.263Z,101485.81
2018-12-05T12:59:30.148Z,101480.19
2018-12-05T13:01:57.654Z,101480.22
2018-12-05T13:04:31.514Z,101478.48
2018-12-05T13:07:01.098Z,101475.88
2018-12-05T13:09:28.533Z,101472.41
2018-12-05T13:11:56.039Z,101466.36
2018-12-05T13:14:23.498Z,101469.84
2018-12-05T13:16:50.917Z,101465.10
2018-12-05T13:19:18.360Z,101456.03
2018-12-05T13:21:46.050Z,101450.43
2018-12-05T13:24:14.487Z,101440.52
2018-12-05T13:26:41.913Z,101441.83
2018-12-05T13:29:09.540Z,101436.64
2018-12-05T13:31:36.967Z,101427.51
2018-12-05T13:34:07.659Z,101423.14
2018-12-05T13:36:35.899Z,101420.51
2018-12-05T13:39:05.296Z,101416.57
2018-12-05T13:41:32.764Z,101413.94
2018-12-05T13:44:01.195Z,101408.75
2018-12-05T13:46:32.580Z,101406.55
2018-12-05T13:49:00.054Z,101403.52
2018-12-05T13:51:35.454Z,101399.16
2018-12-05T13:54:03.058Z,101402.63
2018-12-05T13:56:30.503Z,101400.00
2018-12-05T13:58:57.933Z,101402.17
2018-12-05T14:01:25.370Z,101400.88
2018-12-05T14:04:05.874Z,101393.92
2018-12-05T14:06:33.392Z,101389.59
2018-12-05T14:09:00.931Z,101383.09
2018-12-05T14:11:34.361Z,101379.59
2018-12-05T14:14:01.995Z,101380.03
2018-12-05T14:16:34.361Z,101376.56
2018-12-05T14:19:01.777Z,101377.01
2018-12-05T14:21:29.229Z,101373.09
2018-12-05T14:23:56.651Z,101376.56
2018-12-05T14:26:24.103Z,101367.45
2018-12-05T14:28:51.624Z,101360.94
2018-12-05T14:31:19.148Z,101359.61
2018-12-05T14:33:46.608Z,101352.66
2018-12-05T14:36:14.049Z,101345.28
2018-12-05T14:38:41.762Z,101338.78
2018-12-05T14:41:09.285Z,101330.97
2018-12-05T14:43:36.700Z,101326.17
2018-12-05T14:46:04.312Z,101333.98
2018-12-05T14:48:34.714Z,101330.06
2018-12-05T14:51:02.166Z,101321.80
2018-12-05T14:53:30.385Z,101313.14
2018-12-05T14:56:07.732Z,101315.30
2018-12-05T14:58:35.204Z,101317.92
2018-12-05T15:01:02.648Z,101305.74
2018-12-05T15:03:30.087Z,101301.00
2018-12-05T15:05:57.508Z,101296.23
2018-12-05T15:08:25.000Z,101285.37
2018-12-05T15:10:52.443Z,101284.05
2018-12-05T15:13:19.897Z,101285.33
2018-12-05T15:15:47.329Z,101270.13
2018-12-05T15:18:18.650Z,101270.56
2018-12-05T15:20:46.078Z,101265.79
2018-12-05T15:23:13.544Z,101267.94
2018-12-05T15:25:40.966Z,101267.09
2018-12-05T15:28:08.435Z,101263.59
2018-12-05T15:30:36.371Z,101261.88
2018-12-05T15:33:03.992Z,101255.36
2018-12-05T15:35:31.447Z,101252.33
2018-12-05T15:37:58.901Z,101244.92
2018-12-05T15:40:26.337Z,101245.36
2018-12-05T15:42:53.767Z,101234.05
2018-12-05T15:45:21.671Z,101225.82
2018-12-05T15:47:49.287Z,101217.55
2018-12-05T15:50:18.020Z,101223.22
2018-12-05T15:52:45.669Z,101221.05
2018-12-05T15:58:19.980Z,101217.57
2018-12-05T16:00:47.428Z,101211.45
2018-12-05T16:03:14.988Z,101201.48
2018-12-05T16:05:42.420Z,101205.41
2018-12-05T16:08:09.913Z,101195.39
2018-12-05T16:10:37.344Z,101196.28
2018-12-05T16:13:05.228Z,101195.39
2018-12-05T16:15:32.935Z,101195.39
2018-12-05T16:18:00.368Z,101190.20
2018-12-05T16:20:27.850Z,101191.05
2018-12-05T16:22:55.267Z,101186.27
2018-12-05T16:25:22.790Z,101180.61
2018-12-05T16:27:54.246Z,101177.14
2018-12-05T16:30:37.502Z,101170.63
2018-12-05T16:33:04.940Z,101171.52
2018-12-05T16:35:32.404Z,101169.33
2018-12-05T16:37:59.864Z,101165.44
2018-12-05T16:40:31.289Z,101159.36
2018-12-05T16:42:58.746Z,101156.31
2018-12-05T16:45:26.214Z,101147.64
2018-12-05T16:47:53.668Z,101147.19
2018-12-05T16:50:21.142Z,101147.64
2018-12-05T16:52:48.630Z,101150.23
2018-12-05T16:55:16.059Z,101150.25
2018-12-05T16:57:43.520Z,101155.45
2018-12-05T17:03:14.023Z,101156.33
2018-12-05T17:05:41.460Z,101148.94
2018-12-05T17:08:08.966Z,101145.92
2018-12-05T17:10:36.392Z,101140.27
2018-12-05T17:13:04.135Z,101133.75
2018-12-05T17:15:31.554Z,101130.30
2018-12-05T17:17:59.180Z,101132.88
2018-12-05T17:20:31.602Z,101125.08
2018-12-05T17:22:59.032Z,101125.95
2018-12-05T17:25:26.590Z,101110.31
2018-12-05T17:27:58.145Z,101092.52
2018-12-05T17:30:25.575Z,101078.17
2018-12-05T17:32:53.228Z,101081.23
2018-12-05T17:35:20.683Z,101074.27
2018-12-05T17:37:48.428Z,101065.17
2018-12-05T17:40:15.995Z,101063.84
2018-12-05T17:42:43.597Z,101057.77
2018-12-05T17:45:11.095Z,101067.77
2018-12-05T17:47:38.691Z,101062.56
2018-12-05T17:50:06.341Z,101058.64
2018-12-05T17:52:33.757Z,101046.08
2018-12-05T17:55:01.208Z,101058.23
2018-12-05T17:57:28.646Z,101054.33
2018-12-05T17:59:56.112Z,101046.08
2018-12-05T18:02:23.554Z,101028.25
2018-12-05T18:04:51.176Z,101027.84
2018-12-05T18:07:18.695Z,101032.61
2018-12-05T18:09:46.348Z,101024.79
2018-12-05T18:12:13.772Z,101021.31
2018-12-05T18:14:41.201Z,101026.10
2018-12-05T18:17:15.392Z,101018.29
2018-12-05T18:22:39.704Z,101020.45
2018-12-05T18:25:13.204Z,101023.50
2018-12-05T18:27:40.719Z,101023.95
2018-12-05T18:30:08.533Z,101017.00
2018-12-05T18:32:36.081Z,101013.94
2018-12-05T18:35:04.080Z,101010.05
2018-12-05T18:37:35.531Z,101004.41
2018-12-05T18:40:03.322Z,101006.56
2018-12-05T18:42:30.760Z,101000.91
2018-12-05T18:45:00.311Z,100997.89
2018-12-05T18:47:27.874Z,100987.02
2018-12-05T18:49:55.314Z,100987.02
2018-12-05T18:52:22.788Z,100981.39
2018-12-05T18:54:53.031Z,100976.19
2018-12-05T18:57:20.508Z,100985.28
2018-12-05T18:59:49.929Z,100978.34
2018-12-05T19:02:17.374Z,100983.56
2018-12-05T19:04:44.818Z,100978.77
2018-12-05T19:07:12.329Z,100979.22
2018-12-05T19:09:39.862Z,100972.69
2018-12-05T19:12:12.211Z,100967.50
2018-12-05T19:14:46.541Z,100961.41
2018-12-05T19:17:18.649Z,100957.48
2018-12-05T19:19:46.079Z,100958.78
2018-12-05T19:22:13.519Z,100957.92
2018-12-05T19:24:40.972Z,100952.30
2018-12-05T19:27:08.409Z,100960.54
2018-12-05T19:29:35.887Z,100964.00
2018-12-05T19:32:03.348Z,100956.19
2018-12-05T19:34:32.608Z,100953.58
2018-12-05T19:37:00.133Z,100944.46
2018-12-05T19:39:27.598Z,100941.87
2018-12-05T19:41:55.043Z,100940.11
2018-12-05T19:44:22.970Z,100918.84
2018-12-05T19:46:57.490Z,100907.55
2018-12-05T19:49:24.953Z,100903.66
2018-12-05T19:51:52.405Z,100907.11
2018-12-05T19:54:20.441Z,100901.92
2018-12-05T19:56:47.908Z,100898.89
2018-12-05T19:59:15.364Z,100901.06
2018-12-05T20:01:42.876Z,100904.96
2018-12-05T20:04:12.350Z,100900.63
2018-12-05T20:06:39.836Z,100903.24
2018-12-05T20:09:07.748Z,100897.58
2018-12-05T20:11:35.191Z,100890.63
2018-12-05T20:14:09.570Z,100899.31
2018-12-05T20:16:37.060Z,100886.73
2018-12-05T20:19:04.609Z,100887.61
2018-12-05T20:21:32.063Z,100894.54
2018-12-05T20:23:59.487Z,100899.34
2018-12-05T20:26:27.047Z,100891.08
2018-12-05T20:28:59.469Z,100888.48
2018-12-05T20:31:26.910Z,100892.81
2018-12-05T20:33:54.590Z,100898.03
2018-12-05T20:36:22.030Z,100899.31
2018-12-05T20:38:49.509Z,100894.98
2018-12-05T20:41:33.216Z,100889.33
2018-12-05T20:43:59.038Z,100894.11
2018-12-05T20:46:26.493Z,100887.17
2018-12-05T20:48:53.930Z,100884.13
2018-12-05T20:51:21.502Z,100885.00
2018-12-05T20:53:48.953Z,100868.07
2018-12-05T20:56:16.540Z,100871.09
2018-12-05T20:58:43.983Z,100872.39
2018-12-05T21:01:14.411Z,100872.83
2018-12-05T21:03:46.801Z,100883.26
2018-12-05T21:08:57.384Z,100874.54
2018-12-05T21:11:24.971Z,100884.55
2018-12-05T21:13:52.488Z,100875.84
2018-12-05T21:16:19.956Z,100878.45
2018-12-05T21:18:47.434Z,100872.40
2018-12-05T21:21:14.870Z,100870.64
2018-12-05T21:23:42.319Z,100866.31
2018-12-05T21:26:09.761Z,100859.80
2018-12-05T21:28:37.468Z,100856.75
2018-12-05T21:31:05.127Z,100858.07
2018-12-05T21:33:36.844Z,100855.89
2018-12-05T21:36:07.443Z,100854.59
2018-12-05T21:38:34.882Z,100849.39
2018-12-05T21:41:02.343Z,100845.93
2018-12-05T21:43:37.298Z,100845.05
2018-12-05T21:46:08.559Z,100846.36
2018-12-05T21:48:40.047Z,100841.13
2018-12-05T21:51:12.247Z,100835.92
2018-12-05T21:53:39.709Z,100835.92
2018-12-05T21:56:07.267Z,100835.04
2018-12-05T21:58:34.702Z,100827.66
2018-12-05T22:01:09.579Z,100834.15
2018-12-05T22:03:37.026Z,100822.45
2018-12-05T22:06:04.469Z,100816.37
2018-12-05T22:08:31.896Z,100825.50
2018-12-05T22:10:59.383Z,100820.30
2018-12-05T22:13:27.062Z,100812.89
2018-12-05T22:15:54.499Z,100812.04
2018-12-05T22:18:25.878Z,100805.10
2018-12-05T22:20:59.134Z,100814.65
2018-12-05T22:26:09.777Z,100805.95
2018-12-05T22:28:37.223Z,100800.30
2018-12-05T22:34:33.544Z,100798.15
2018-12-05T22:37:01.945Z,100796.38
2018-12-05T22:39:29.439Z,100792.93
2018-12-05T22:41:56.896Z,100798.56
2018-12-05T22:44:27.167Z,100792.48
2018-12-05T22:46:54.706Z,100790.33
2018-12-05T22:49:22.119Z,100792.94
2018-12-05T22:54:43.717Z,100800.74
2018-12-05T22:57:13.338Z,100799.89
2018-12-05T22:59:41.290Z,100798.16
2018-12-05T23:02:11.712Z,100801.18
2018-12-05T23:04:39.231Z,100801.20
2018-12-05T23:07:06.649Z,100795.57
2018-12-05T23:09:34.130Z,100799.03
2018-12-05T23:12:01.557Z,100798.16
2018-12-05T23:14:28.998Z,100795.09
2018-12-05T23:16:56.591Z,100796.41
2018-12-05T23:19:24.132Z,100789.03
2018-12-05T23:21:51.578Z,100792.91
2018-12-05T23:24:19.090Z,100795.49
2018-12-05T23:26:46.539Z,100789.44
2018-12-05T23:29:13.976Z,100784.64
2018-12-05T23:31:41.422Z,100782.47
2018-12-05T23:34:15.758Z,100782.05
2018-12-05T23:36:43.167Z,100778.98
2018-12-05T23:39:10.596Z,100772.47
2018-12-05T23:41:38.242Z,100780.73
2018-12-05T23:44:09.636Z,100785.95
2018-12-05T23:46:42.191Z,100772.05
2018-12-05T23:49:09.639Z,100773.75
2018-12-05T23:51:37.072Z,100767.24
2018-12-05T23:54:10.399Z,100773.75
2018-12-05T23:56:41.018Z,100769.84
2018-12-05T23:59:08.474Z,100777.67
